Terminal Aerodrome Forecast
Issued by NWS Newport/Morehead City, NC

Home | Current Version | Previous Version | Text Only | Print | Product List | Glossary Off
Versions: 1 2 3 4 5 6 7 8 9 10 11 12 13 14 15 16

000
FTUS42 KMHX 271756
TAFEWN
TAF
KEWN 271756Z 2718/2818 10004KT P6SM VCSH SCT030 BKN050
     FM280000 VRB04KT P6SM VCSH BKN050
     FM280600 VRB03KT 3SM BR SCT007 BKN040
     FM281300 16005KT P6SM BKN040=

USA.gov is the U.S. government's official web portal to all federal, state and local government web resources and services.